首页
METAR-TAF:

METAR-TAF

机场 :

Julian Carroll Airport

杰克逊, 肯塔基州, 美国

纬度: 37-35-29N, 经度: 083-18-52W, 海拔: 421米

当前天气观测

该预报发布于27分钟前的19:53 UTC
风速4节,风向东北
温度 2°C
湿度 69%
气压 1028 hPa
能見度: 16.1公里
多云层高于11000英尺

METAR: KJKL 141953Z AUTO 04004KT 10SM BKN110 02/M03 A3036 RMK AO2 SLP292 T00171033

时间: 15:20 (20:20 UTC)

预报

该预报发布于2小时和45分钟前的17:35 UTC
预报有效从14日的 18点(UTC)到 15日的 18点(UTC)
风速7节,风向东北
能見度: 10公里
多云层高于20000英尺
从 15日的 0000点(UTC)
风速8节,风向东转东北
能見度: 10公里
阴天层高于7000英尺
附近有阵雨
从 15日的 0600点(UTC)
风速7节,风向
能見度: 6.4公里
阴天层高于2500英尺
从 15日的 1000点(UTC)
风速7节,风向
能見度: 4.8公里
阴天层高于1000英尺
从 15日的 1700点(UTC)
风速5节,风向
能見度: 9.7公里
阴天层高于800英尺

TAF: KJKL 141735Z 1418/1518 05007KT P6SM BKN200 FM150000 07008KT P6SM VCSH OVC070 FM150600 08007KT 4SM RA OVC025 FM151000 08007KT 3SM RA OVC010 FM151700 10005KT 6SM RA OVC008

超过4000个机场的气象观测和天气预报(METAR&TAF报告)。

可查询的气象台以黄色和红色小点在地图上表示。

将鼠标移到小点上方,可查看气象台名称。

然后点击查看天气观测和预报。

如需切换地图:点击带黑十字的绿色按钮放大地图;点击带横线的绿色按钮缩小地图;或者点击绿色箭头查看邻近地区的地图。


METAR-TAF: